sensor_id;sensor_type;location;lat;lon;timestamp;temperature;humidity
46752;DHT22;32497;48.936;9.270;2023-04-03T00:00:25;3.60;75.60
46752;DHT22;32497;48.936;9.270;2023-04-03T00:05:26;3.70;75.10
46752;DHT22;32497;48.936;9.270;2023-04-03T00:10:27;3.70;75.50
46752;DHT22;32497;48.936;9.270;2023-04-03T00:15:30;3.80;74.90
46752;DHT22;32497;48.936;9.270;2023-04-03T00:20:32;3.80;75.20
46752;DHT22;32497;48.936;9.270;2023-04-03T00:25:33;3.90;74.80
46752;DHT22;32497;48.936;9.270;2023-04-03T00:30:36;3.90;74.20
46752;DHT22;32497;48.936;9.270;2023-04-03T00:35:40;3.70;74.70
46752;DHT22;32497;48.936;9.270;2023-04-03T00:40:43;3.70;75.40
46752;DHT22;32497;48.936;9.270;2023-04-03T00:45:47;3.60;75.80
46752;DHT22;32497;48.936;9.270;2023-04-03T00:50:49;3.60;75.30
46752;DHT22;32497;48.936;9.270;2023-04-03T00:55:51;3.60;75.30
46752;DHT22;32497;48.936;9.270;2023-04-03T01:00:58;3.50;75.40
46752;DHT22;32497;48.936;9.270;2023-04-03T01:05:59;3.40;76.50
46752;DHT22;32497;48.936;9.270;2023-04-03T01:11:01;3.30;76.30
46752;DHT22;32497;48.936;9.270;2023-04-03T01:16:05;3.30;76.20
46752;DHT22;32497;48.936;9.270;2023-04-03T01:21:28;3.20;76.50
46752;DHT22;32497;48.936;9.270;2023-04-03T01:26:31;3.20;75.90
46752;DHT22;32497;48.936;9.270;2023-04-03T01:31:49;3.20;74.00
46752;DHT22;32497;48.936;9.270;2023-04-03T01:36:50;3.10;74.30
46752;DHT22;32497;48.936;9.270;2023-04-03T01:41:52;3.10;73.90
46752;DHT22;32497;48.936;9.270;2023-04-03T01:47:07;3.10;74.60
46752;DHT22;32497;48.936;9.270;2023-04-03T01:52:09;3.10;74.20
46752;DHT22;32497;48.936;9.270;2023-04-03T01:57:10;3.10;73.00
46752;DHT22;32497;48.936;9.270;2023-04-03T02:02:13;3.20;72.80
46752;DHT22;32497;48.936;9.270;2023-04-03T02:07:14;3.10;73.00
46752;DHT22;32497;48.936;9.270;2023-04-03T02:12:15;3.00;72.70
46752;DHT22;32497;48.936;9.270;2023-04-03T02:17:17;3.00;70.90
46752;DHT22;32497;48.936;9.270;2023-04-03T02:22:19;3.00;72.40
46752;DHT22;32497;48.936;9.270;2023-04-03T02:27:20;3.10;73.40
46752;DHT22;32497;48.936;9.270;2023-04-03T02:32:22;3.10;73.40
46752;DHT22;32497;48.936;9.270;2023-04-03T02:37:24;3.20;72.90
46752;DHT22;32497;48.936;9.270;2023-04-03T02:42:27;3.30;72.20
46752;DHT22;32497;48.936;9.270;2023-04-03T02:47:30;3.40;72.00
46752;DHT22;32497;48.936;9.270;2023-04-03T02:52:31;3.50;71.90
46752;DHT22;32497;48.936;9.270;2023-04-03T02:57:32;3.60;71.50
46752;DHT22;32497;48.936;9.270;2023-04-03T03:02:35;3.60;70.30
46752;DHT22;32497;48.936;9.270;2023-04-03T03:07:36;3.60;71.20
46752;DHT22;32497;48.936;9.270;2023-04-03T03:12:37;3.60;71.20
46752;DHT22;32497;48.936;9.270;2023-04-03T03:17:40;3.60;71.40
46752;DHT22;32497;48.936;9.270;2023-04-03T03:22:41;3.60;71.30
46752;DHT22;32497;48.936;9.270;2023-04-03T03:27:42;3.60;70.80
46752;DHT22;32497;48.936;9.270;2023-04-03T03:32:45;3.60;70.90
46752;DHT22;32497;48.936;9.270;2023-04-03T03:37:46;3.60;71.60
46752;DHT22;32497;48.936;9.270;2023-04-03T03:42:47;3.60;71.20
46752;DHT22;32497;48.936;9.270;2023-04-03T03:47:50;3.50;69.40
46752;DHT22;32497;48.936;9.270;2023-04-03T03:52:51;3.60;70.20
46752;DHT22;32497;48.936;9.270;2023-04-03T03:57:52;3.50;70.10
46752;DHT22;32497;48.936;9.270;2023-04-03T04:02:56;3.50;70.40
46752;DHT22;32497;48.936;9.270;2023-04-03T04:07:58;3.50;71.20
46752;DHT22;32497;48.936;9.270;2023-04-03T04:13:00;3.50;70.50
46752;DHT22;32497;48.936;9.270;2023-04-03T04:18:04;3.40;69.80
46752;DHT22;32497;48.936;9.270;2023-04-03T04:23:06;3.30;70.10
46752;DHT22;32497;48.936;9.270;2023-04-03T04:28:08;3.40;70.40
46752;DHT22;32497;48.936;9.270;2023-04-03T04:33:11;3.40;71.80
46752;DHT22;32497;48.936;9.270;2023-04-03T04:38:13;3.30;71.60
46752;DHT22;32497;48.936;9.270;2023-04-03T04:43:16;3.40;70.60
46752;DHT22;32497;48.936;9.270;2023-04-03T04:48:21;3.30;71.90
46752;DHT22;32497;48.936;9.270;2023-04-03T04:53:22;3.40;71.30
46752;DHT22;32497;48.936;9.270;2023-04-03T04:58:24;3.30;70.50
46752;DHT22;32497;48.936;9.270;2023-04-03T05:03:27;3.20;70.80
46752;DHT22;32497;48.936;9.270;2023-04-03T05:08:29;3.20;71.20
46752;DHT22;32497;48.936;9.270;2023-04-03T05:13:30;3.20;70.90
46752;DHT22;32497;48.936;9.270;2023-04-03T05:18:33;3.10;71.80
46752;DHT22;32497;48.936;9.270;2023-04-03T05:23:40;3.10;71.90
46752;DHT22;32497;48.936;9.270;2023-04-03T05:28:41;2.80;72.80
46752;DHT22;32497;48.936;9.270;2023-04-03T05:33:45;2.80;73.50
46752;DHT22;32497;48.936;9.270;2023-04-03T05:38:51;3.00;73.60
46752;DHT22;32497;48.936;9.270;2023-04-03T05:43:52;3.10;73.30
46752;DHT22;32497;48.936;9.270;2023-04-03T05:48:57;3.30;72.70
46752;DHT22;32497;48.936;9.270;2023-04-03T05:54:06;3.50;71.90
46752;DHT22;32497;48.936;9.270;2023-04-03T05:59:10;3.70;71.20
46752;DHT22;32497;48.936;9.270;2023-04-03T06:04:14;3.70;71.30
46752;DHT22;32497;48.936;9.270;2023-04-03T06:09:15;3.80;69.70
46752;DHT22;32497;48.936;9.270;2023-04-03T06:14:17;3.90;69.50
46752;DHT22;32497;48.936;9.270;2023-04-03T06:19:19;4.10;69.50
46752;DHT22;32497;48.936;9.270;2023-04-03T06:24:25;4.30;69.70
46752;DHT22;32497;48.936;9.270;2023-04-03T06:29:26;4.40;69.90
46752;DHT22;32497;48.936;9.270;2023-04-03T06:34:28;4.60;69.40
46752;DHT22;32497;48.936;9.270;2023-04-03T06:39:29;4.50;69.20
46752;DHT22;32497;48.936;9.270;2023-04-03T06:44:30;4.60;68.90
46752;DHT22;32497;48.936;9.270;2023-04-03T06:49:33;4.80;68.60
46752;DHT22;32497;48.936;9.270;2023-04-03T06:54:34;4.90;68.30
46752;DHT22;32497;48.936;9.270;2023-04-03T06:59:35;5.00;68.30
46752;DHT22;32497;48.936;9.270;2023-04-03T07:04:38;5.10;68.40
46752;DHT22;32497;48.936;9.270;2023-04-03T07:09:39;5.10;68.60
46752;DHT22;32497;48.936;9.270;2023-04-03T07:14:40;5.30;68.00
46752;DHT22;32497;48.936;9.270;2023-04-03T07:19:43;5.60;68.70
46752;DHT22;32497;48.936;9.270;2023-04-03T07:24:44;5.50;66.90
46752;DHT22;32497;48.936;9.270;2023-04-03T07:29:45;5.30;67.10
46752;DHT22;32497;48.936;9.270;2023-04-03T07:34:47;5.40;68.30
46752;DHT22;32497;48.936;9.270;2023-04-03T07:39:48;5.20;67.70
46752;DHT22;32497;48.936;9.270;2023-04-03T07:44:50;5.40;67.70
46752;DHT22;32497;48.936;9.270;2023-04-03T07:49:52;5.50;67.90
46752;DHT22;32497;48.936;9.270;2023-04-03T07:54:53;5.80;67.50
46752;DHT22;32497;48.936;9.270;2023-04-03T07:59:54;6.00;65.00
46752;DHT22;32497;48.936;9.270;2023-04-03T08:04:57;6.40;65.90
46752;DHT22;32497;48.936;9.270;2023-04-03T08:09:58;6.10;63.30
46752;DHT22;32497;48.936;9.270;2023-04-03T08:15:00;6.30;65.00
46752;DHT22;32497;48.936;9.270;2023-04-03T08:20:03;6.60;62.60
46752;DHT22;32497;48.936;9.270;2023-04-03T08:25:05;7.10;61.00
46752;DHT22;32497;48.936;9.270;2023-04-03T08:30:07;7.40;61.00
46752;DHT22;32497;48.936;9.270;2023-04-03T08:35:10;7.40;59.90
46752;DHT22;32497;48.936;9.270;2023-04-03T08:40:14;7.60;59.60
46752;DHT22;32497;48.936;9.270;2023-04-03T08:45:19;7.50;59.60
46752;DHT22;32497;48.936;9.270;2023-04-03T08:50:26;8.20;61.80
46752;DHT22;32497;48.936;9.270;2023-04-03T08:55:31;8.20;58.20
46752;DHT22;32497;48.936;9.270;2023-04-03T09:00:40;8.10;57.70
46752;DHT22;32497;48.936;9.270;2023-04-03T09:05:48;7.90;60.40
46752;DHT22;32497;48.936;9.270;2023-04-03T09:10:55;7.70;60.70
46752;DHT22;32497;48.936;9.270;2023-04-03T09:16:01;8.20;60.40
46752;DHT22;32497;48.936;9.270;2023-04-03T09:21:11;8.40;57.20
46752;DHT22;32497;48.936;9.270;2023-04-03T09:26:18;8.80;58.80
46752;DHT22;32497;48.936;9.270;2023-04-03T09:31:22;8.90;55.20
46752;DHT22;32497;48.936;9.270;2023-04-03T09:36:42;9.00;53.60
46752;DHT22;32497;48.936;9.270;2023-04-03T09:41:57;9.40;53.60
46752;DHT22;32497;48.936;9.270;2023-04-03T09:46:58;9.30;52.20
46752;DHT22;32497;48.936;9.270;2023-04-03T09:52:18;10.00;51.00
46752;DHT22;32497;48.936;9.270;2023-04-03T09:57:20;10.10;49.60
46752;DHT22;32497;48.936;9.270;2023-04-03T10:02:28;10.10;49.50
46752;DHT22;32497;48.936;9.270;2023-04-03T10:07:34;10.20;48.70
46752;DHT22;32497;48.936;9.270;2023-04-03T10:12:36;9.70;48.10
46752;DHT22;32497;48.936;9.270;2023-04-03T10:17:50;9.90;49.50
46752;DHT22;32497;48.936;9.270;2023-04-03T10:23:02;10.00;47.80
46752;DHT22;32497;48.936;9.270;2023-04-03T10:28:10;9.90;48.40
46752;DHT22;32497;48.936;9.270;2023-04-03T10:33:23;9.50;47.30
46752;DHT22;32497;48.936;9.270;2023-04-03T10:38:38;9.60;44.50
46752;DHT22;32497;48.936;9.270;2023-04-03T10:43:44;9.50;45.20
46752;DHT22;32497;48.936;9.270;2023-04-03T10:49:10;8.80;48.90
46752;DHT22;32497;48.936;9.270;2023-04-03T10:54:23;8.70;49.10
46752;DHT22;32497;48.936;9.270;2023-04-03T10:59:28;8.90;47.40
46752;DHT22;32497;48.936;9.270;2023-04-03T11:04:35;8.50;47.60
46752;DHT22;32497;48.936;9.270;2023-04-03T11:09:41;8.40;47.90
46752;DHT22;32497;48.936;9.270;2023-04-03T11:14:45;7.80;51.70
46752;DHT22;32497;48.936;9.270;2023-04-03T11:19:52;8.00;50.00
46752;DHT22;32497;48.936;9.270;2023-04-03T11:25:06;8.40;49.40
46752;DHT22;32497;48.936;9.270;2023-04-03T11:30:19;9.00;48.80
46752;DHT22;32497;48.936;9.270;2023-04-03T11:35:21;9.00;47.60
46752;DHT22;32497;48.936;9.270;2023-04-03T11:40:28;8.40;49.00
46752;DHT22;32497;48.936;9.270;2023-04-03T11:45:36;8.20;50.80
46752;DHT22;32497;48.936;9.270;2023-04-03T11:50:43;8.60;48.60
46752;DHT22;32497;48.936;9.270;2023-04-03T11:55:53;8.70;47.90
46752;DHT22;32497;48.936;9.270;2023-04-03T12:01:09;9.10;47.30
46752;DHT22;32497;48.936;9.270;2023-04-03T12:11:57;10.40;44.20
46752;DHT22;32497;48.936;9.270;2023-04-03T12:16:59;9.70;45.40
46752;DHT22;32497;48.936;9.270;2023-04-03T12:22:21;9.70;45.10
46752;DHT22;32497;48.936;9.270;2023-04-03T12:27:29;10.00;44.40
46752;DHT22;32497;48.936;9.270;2023-04-03T12:32:45;11.00;43.20
46752;DHT22;32497;48.936;9.270;2023-04-03T12:44:00;11.40;40.70
46752;DHT22;32497;48.936;9.270;2023-04-03T12:49:15;10.80;43.40
46752;DHT22;32497;48.936;9.270;2023-04-03T12:54:23;10.20;43.60
46752;DHT22;32497;48.936;9.270;2023-04-03T12:59:26;9.60;44.40
46752;DHT22;32497;48.936;9.270;2023-04-03T13:04:29;9.70;44.00
46752;DHT22;32497;48.936;9.270;2023-04-03T13:09:31;10.10;44.00
46752;DHT22;32497;48.936;9.270;2023-04-03T13:14:34;9.90;43.00
46752;DHT22;32497;48.936;9.270;2023-04-03T13:19:35;10.00;44.00
46752;DHT22;32497;48.936;9.270;2023-04-03T13:24:37;9.70;42.80
46752;DHT22;32497;48.936;9.270;2023-04-03T13:29:41;9.90;42.80
46752;DHT22;32497;48.936;9.270;2023-04-03T13:34:43;10.60;42.40
46752;DHT22;32497;48.936;9.270;2023-04-03T13:39:44;10.70;39.40
46752;DHT22;32497;48.936;9.270;2023-04-03T13:44:47;10.40;41.20
46752;DHT22;32497;48.936;9.270;2023-04-03T13:50:00;10.00;42.40
46752;DHT22;32497;48.936;9.270;2023-04-03T13:55:16;10.10;43.20
46752;DHT22;32497;48.936;9.270;2023-04-03T14:00:34;9.80;41.50
46752;DHT22;32497;48.936;9.270;2023-04-03T14:05:35;10.10;43.30
46752;DHT22;32497;48.936;9.270;2023-04-03T14:10:36;11.70;38.00
46752;DHT22;32497;48.936;9.270;2023-04-03T14:15:39;11.00;40.40
46752;DHT22;32497;48.936;9.270;2023-04-03T14:20:40;9.80;42.30
46752;DHT22;32497;48.936;9.270;2023-04-03T14:25:42;9.60;41.70
46752;DHT22;32497;48.936;9.270;2023-04-03T14:30:46;12.40;36.20
46752;DHT22;32497;48.936;9.270;2023-04-03T14:35:48;11.60;37.00
46752;DHT22;32497;48.936;9.270;2023-04-03T14:40:50;10.00;40.90
46752;DHT22;32497;48.936;9.270;2023-04-03T14:45:53;9.20;42.60
46752;DHT22;32497;48.936;9.270;2023-04-03T14:50:54;9.10;42.70
46752;DHT22;32497;48.936;9.270;2023-04-03T14:55:55;11.90;39.90
46752;DHT22;32497;48.936;9.270;2023-04-03T15:00:58;15.40;32.10
46752;DHT22;32497;48.936;9.270;2023-04-03T15:05:59;14.40;32.80
46752;DHT22;32497;48.936;9.270;2023-04-03T15:11:00;11.30;36.10
46752;DHT22;32497;48.936;9.270;2023-04-03T15:16:03;9.50;39.60
46752;DHT22;32497;48.936;9.270;2023-04-03T15:21:05;9.00;40.80
46752;DHT22;32497;48.936;9.270;2023-04-03T15:26:06;11.50;37.10
46752;DHT22;32497;48.936;9.270;2023-04-03T15:31:09;13.00;34.80
46752;DHT22;32497;48.936;9.270;2023-04-03T15:36:10;14.90;32.90
46752;DHT22;32497;48.936;9.270;2023-04-03T15:41:11;14.70;31.40
46752;DHT22;32497;48.936;9.270;2023-04-03T15:46:14;11.40;38.30
46752;DHT22;32497;48.936;9.270;2023-04-03T15:51:15;9.40;40.10
46752;DHT22;32497;48.936;9.270;2023-04-03T15:56:16;8.50;43.20
46752;DHT22;32497;48.936;9.270;2023-04-03T16:01:21;8.90;43.60
46752;DHT22;32497;48.936;9.270;2023-04-03T16:06:24;10.10;40.00
46752;DHT22;32497;48.936;9.270;2023-04-03T16:11:26;10.00;41.50
46752;DHT22;32497;48.936;9.270;2023-04-03T16:16:29;9.60;41.90
46752;DHT22;32497;48.936;9.270;2023-04-03T16:21:31;8.50;42.20
46752;DHT22;32497;48.936;9.270;2023-04-03T16:26:33;7.80;43.80
46752;DHT22;32497;48.936;9.270;2023-04-03T16:31:35;7.50;47.80
46752;DHT22;32497;48.936;9.270;2023-04-03T16:36:36;7.30;48.70
46752;DHT22;32497;48.936;9.270;2023-04-03T16:41:38;7.50;45.20
46752;DHT22;32497;48.936;9.270;2023-04-03T16:46:40;7.80;46.60
46752;DHT22;32497;48.936;9.270;2023-04-03T16:51:41;7.60;45.20
46752;DHT22;32497;48.936;9.270;2023-04-03T16:56:42;7.40;45.30
46752;DHT22;32497;48.936;9.270;2023-04-03T17:01:45;7.10;45.90
46752;DHT22;32497;48.936;9.270;2023-04-03T17:06:46;6.90;48.20
46752;DHT22;32497;48.936;9.270;2023-04-03T17:11:48;6.60;50.20
46752;DHT22;32497;48.936;9.270;2023-04-03T17:16:51;6.30;49.70
46752;DHT22;32497;48.936;9.270;2023-04-03T17:21:52;6.20;49.30
46752;DHT22;32497;48.936;9.270;2023-04-03T17:26:53;6.20;48.30
46752;DHT22;32497;48.936;9.270;2023-04-03T17:31:56;6.10;51.80
46752;DHT22;32497;48.936;9.270;2023-04-03T17:36:57;6.00;52.10
46752;DHT22;32497;48.936;9.270;2023-04-03T17:41:58;5.90;51.20
46752;DHT22;32497;48.936;9.270;2023-04-03T17:47:01;5.80;50.30
46752;DHT22;32497;48.936;9.270;2023-04-03T17:52:02;5.60;50.40
46752;DHT22;32497;48.936;9.270;2023-04-03T17:57:03;5.40;50.20
46752;DHT22;32497;48.936;9.270;2023-04-03T18:02:06;5.10;52.70
46752;DHT22;32497;48.936;9.270;2023-04-03T18:07:07;4.80;53.30
46752;DHT22;32497;48.936;9.270;2023-04-03T18:12:08;4.60;52.90
46752;DHT22;32497;48.936;9.270;2023-04-03T18:17:11;4.50;53.20
46752;DHT22;32497;48.936;9.270;2023-04-03T18:22:15;4.30;53.90
46752;DHT22;32497;48.936;9.270;2023-04-03T18:27:18;4.20;54.10
46752;DHT22;32497;48.936;9.270;2023-04-03T18:32:21;4.20;53.80
46752;DHT22;32497;48.936;9.270;2023-04-03T18:37:23;4.10;54.70
46752;DHT22;32497;48.936;9.270;2023-04-03T18:42:25;3.90;55.00
46752;DHT22;32497;48.936;9.270;2023-04-03T18:47:28;3.80;54.80
46752;DHT22;32497;48.936;9.270;2023-04-03T18:52:29;3.70;56.00
46752;DHT22;32497;48.936;9.270;2023-04-03T18:57:30;3.60;56.50
46752;DHT22;32497;48.936;9.270;2023-04-03T19:02:33;3.50;56.50
46752;DHT22;32497;48.936;9.270;2023-04-03T19:07:34;3.50;57.70
46752;DHT22;32497;48.936;9.270;2023-04-03T19:12:36;3.50;57.60
46752;DHT22;32497;48.936;9.270;2023-04-03T19:17:38;3.70;56.00
46752;DHT22;32497;48.936;9.270;2023-04-03T19:22:39;3.80;55.40
46752;DHT22;32497;48.936;9.270;2023-04-03T19:27:40;3.80;55.40
46752;DHT22;32497;48.936;9.270;2023-04-03T19:32:43;3.60;55.90
46752;DHT22;32497;48.936;9.270;2023-04-03T19:37:44;3.40;56.80
46752;DHT22;32497;48.936;9.270;2023-04-03T19:42:45;3.20;57.10
46752;DHT22;32497;48.936;9.270;2023-04-03T19:47:48;3.10;56.70
46752;DHT22;32497;48.936;9.270;2023-04-03T19:52:49;3.10;56.50
46752;DHT22;32497;48.936;9.270;2023-04-03T19:57:50;3.00;56.90
46752;DHT22;32497;48.936;9.270;2023-04-03T20:02:53;3.00;56.20
46752;DHT22;32497;48.936;9.270;2023-04-03T20:07:54;2.90;56.40
46752;DHT22;32497;48.936;9.270;2023-04-03T20:12:55;3.10;59.10
46752;DHT22;32497;48.936;9.270;2023-04-03T20:17:58;2.90;57.20
46752;DHT22;32497;48.936;9.270;2023-04-03T20:22:59;2.70;58.10
46752;DHT22;32497;48.936;9.270;2023-04-03T20:28:00;2.70;58.00
46752;DHT22;32497;48.936;9.270;2023-04-03T20:33:03;2.70;57.90
46752;DHT22;32497;48.936;9.270;2023-04-03T20:38:04;2.50;59.30
46752;DHT22;32497;48.936;9.270;2023-04-03T20:43:06;2.30;60.10
46752;DHT22;32497;48.936;9.270;2023-04-03T20:48:08;2.20;60.40
46752;DHT22;32497;48.936;9.270;2023-04-03T20:53:09;2.20;60.00
46752;DHT22;32497;48.936;9.270;2023-04-03T20:58:11;2.20;59.60
46752;DHT22;32497;48.936;9.270;2023-04-03T21:03:13;2.10;59.40
46752;DHT22;32497;48.936;9.270;2023-04-03T21:19:33;2.00;60.10
46752;DHT22;32497;48.936;9.270;2023-04-03T21:24:35;2.10;59.30
46752;DHT22;32497;48.936;9.270;2023-04-03T21:29:36;1.90;59.70
46752;DHT22;32497;48.936;9.270;2023-04-03T21:34:38;1.90;60.10
46752;DHT22;32497;48.936;9.270;2023-04-03T21:39:40;1.80;60.10
46752;DHT22;32497;48.936;9.270;2023-04-03T21:44:41;1.70;60.50
46752;DHT22;32497;48.936;9.270;2023-04-03T21:49:43;1.60;60.00
46752;DHT22;32497;48.936;9.270;2023-04-03T21:54:44;1.60;60.10
46752;DHT22;32497;48.936;9.270;2023-04-03T21:59:45;1.60;60.30
46752;DHT22;32497;48.936;9.270;2023-04-03T22:04:48;1.60;59.50
46752;DHT22;32497;48.936;9.270;2023-04-03T22:09:49;1.50;60.20
46752;DHT22;32497;48.936;9.270;2023-04-03T22:14:50;1.40;60.50
46752;DHT22;32497;48.936;9.270;2023-04-03T22:19:52;1.40;60.50
46752;DHT22;32497;48.936;9.270;2023-04-03T22:24:53;1.20;61.20
46752;DHT22;32497;48.936;9.270;2023-04-03T22:29:54;1.20;61.70
46752;DHT22;32497;48.936;9.270;2023-04-03T22:34:57;1.10;62.60
46752;DHT22;32497;48.936;9.270;2023-04-03T22:39:58;1.00;62.30
46752;DHT22;32497;48.936;9.270;2023-04-03T22:44:59;0.90;63.50
46752;DHT22;32497;48.936;9.270;2023-04-03T22:50:01;0.90;63.50
46752;DHT22;32497;48.936;9.270;2023-04-03T22:55:03;0.90;63.30
46752;DHT22;32497;48.936;9.270;2023-04-03T23:00:05;0.90;63.20
46752;DHT22;32497;48.936;9.270;2023-04-03T23:05:08;0.80;64.00
46752;DHT22;32497;48.936;9.270;2023-04-03T23:10:10;0.70;64.20
46752;DHT22;32497;48.936;9.270;2023-04-03T23:15:11;0.60;64.10
46752;DHT22;32497;48.936;9.270;2023-04-03T23:20:13;0.60;64.30
46752;DHT22;32497;48.936;9.270;2023-04-03T23:25:14;0.50;65.10
46752;DHT22;32497;48.936;9.270;2023-04-03T23:30:16;0.40;65.80
46752;DHT22;32497;48.936;9.270;2023-04-03T23:35:18;0.30;66.10
46752;DHT22;32497;48.936;9.270;2023-04-03T23:40:19;0.20;66.30
46752;DHT22;32497;48.936;9.270;2023-04-03T23:45:20;0.10;66.40
46752;DHT22;32497;48.936;9.270;2023-04-03T23:50:23;0.00;67.10
46752;DHT22;32497;48.936;9.270;2023-04-03T23:55:24;0.00;67.80
